Strona główna
METAR-TAF:

METAR-TAF

Lotnisko :

Port lotniczy Kärdla

Kärdla, Estonia

Szerokość geograficzna: 58-59N, Długość geograficzna: 022-49E, wysokość: 5 m

Aktualna obserwacja pogody

Raport powstał 25 minut temu, godzina 14:50 UTC
Wiatr 9 kt od północny zachód, zmienny między zachód i północ
Temperatura 17°C
Wilgotność 48%
Ciśnienie 1015 hPa
Widzialność 10 km lub więcej
Brak chmur poniżej 1500 m i brak chmur cumulonimbus

METAR: EEKA 211450Z 32009KT 270V350 CAVOK 17/06 Q1015

czas: 18:15 (15:15 UTC)

Prognoza

Raport powstał 3 godziny i 15 minut temu, godzina 12:00 UTC
Prognoza ważna od 21 godzina 13 UTC do 21 godzina 19 UTC
Wiatr 13 kt od północno-północny zachód w porywach dochodzący do 23 kt
Widzialność 10 km lub więcej
Rozproszone chmury na wysokości 2500 ft
Stopniowe zmiany
od 21 godzina 16 UTC do 21 godzina 18 UTC
Wiatr 6 kt od północny zachód

TAF: EEKA 211200Z 2113/2119 33013G23KT 9999 SCT025 BECMG 2116/2118 32006KT

Obserwacja i prognoza pogody dla ponad 4000 lotnisk (raport METAR i TAF).

Dostępne stacje oznaczono żółtymi i czerwonymi punktami na mapie.

Najedź kursorem aby zobaczyć nazwę stacji.

Kliknij aby zobaczyć obserwacje i prognozy pogody.

Aby zmienić mapę: kliknij na zielony przycisk z czarnym krzyżykiem, aby powiększyć; na zielony przycisk z myślnikiem, aby pomniejszyć; na zielone strzałki, aby przejść do map sąsiednich.


METAR-TAF: